createdAt,value
2023-04-04T00:00:31.208Z,2.57
2023-04-04T00:02:58.639Z,2.60
2023-04-04T00:05:26.160Z,3.07
2023-04-04T00:07:53.307Z,2.47
2023-04-04T00:10:20.852Z,2.50
2023-04-04T00:12:47.912Z,3.03
2023-04-04T00:15:15.455Z,2.53
2023-04-04T00:17:42.559Z,2.30
2023-04-04T00:20:09.867Z,2.93
2023-04-04T00:22:37.033Z,2.57
2023-04-04T00:25:04.679Z,2.47
2023-04-04T00:27:31.897Z,2.57
2023-04-04T00:29:59.029Z,2.60
2023-04-04T00:32:26.325Z,2.57
2023-04-04T00:34:54.062Z,2.97
2023-04-04T00:37:21.587Z,2.83
2023-04-04T00:39:49.944Z,3.07
2023-04-04T00:42:17.460Z,2.70
2023-04-04T00:44:44.569Z,2.70
2023-04-04T00:47:11.767Z,2.80
2023-04-04T00:49:38.895Z,2.20
2023-04-04T00:52:07.666Z,2.70
2023-04-04T00:54:35.582Z,2.97
2023-04-04T00:57:03.260Z,2.77
2023-04-04T00:59:30.616Z,2.80
2023-04-04T01:01:58.028Z,3.13
2023-04-04T01:04:25.201Z,2.40
2023-04-04T01:06:52.466Z,2.90
2023-04-04T01:09:19.666Z,2.77
2023-04-04T01:11:47.026Z,3.37
2023-04-04T01:14:14.168Z,2.90
2023-04-04T01:16:41.931Z,2.40
2023-04-04T01:19:12.177Z,3.07
2023-04-04T01:21:40.303Z,2.43
2023-04-04T01:24:08.657Z,2.77
2023-04-04T01:26:35.827Z,2.70
2023-04-04T01:29:02.902Z,3.10
2023-04-04T01:31:36.542Z,2.90
2023-04-04T01:34:16.621Z,3.00
2023-04-04T01:36:56.461Z,2.60
2023-04-04T01:39:25.670Z,3.10
2023-04-04T01:41:52.813Z,3.80
2023-04-04T01:44:20.182Z,3.07
2023-04-04T01:46:47.476Z,2.60
2023-04-04T01:49:14.616Z,2.80
2023-04-04T01:51:41.850Z,2.77
2023-04-04T01:54:08.952Z,2.70
2023-04-04T01:56:36.006Z,3.37
2023-04-04T01:59:03.168Z,2.67
2023-04-04T02:01:30.814Z,2.70
2023-04-04T02:03:58.186Z,2.63
2023-04-04T02:06:25.367Z,2.63
2023-04-04T02:08:52.900Z,3.30
2023-04-04T02:11:22.897Z,3.00
2023-04-04T02:13:50.484Z,2.47
2023-04-04T02:16:18.226Z,2.50
2023-04-04T02:18:45.912Z,2.77
2023-04-04T02:21:13.185Z,2.50
2023-04-04T02:23:40.305Z,2.57
2023-04-04T02:26:07.474Z,2.77
2023-04-04T02:28:34.756Z,2.50
2023-04-04T02:31:02.448Z,2.70
2023-04-04T02:33:30.428Z,2.73
2023-04-04T02:35:58.835Z,2.60
2023-04-04T02:38:26.290Z,2.50
2023-04-04T02:40:53.368Z,2.80
2023-04-04T02:43:20.560Z,2.60
2023-04-04T02:45:50.599Z,3.03
2023-04-04T02:48:17.638Z,2.47
2023-04-04T02:50:44.873Z,2.60
2023-04-04T02:53:12.146Z,2.27
2023-04-04T02:55:39.491Z,2.33
2023-04-04T02:58:07.113Z,2.50
2023-04-04T03:00:34.176Z,2.60
2023-04-04T03:03:01.446Z,2.80
2023-04-04T03:05:28.614Z,2.83
2023-04-04T03:07:56.738Z,2.37
2023-04-04T03:10:29.826Z,2.63
2023-04-04T03:12:57.410Z,2.50
2023-04-04T03:15:25.592Z,2.20
2023-04-04T03:17:53.267Z,2.57
2023-04-04T03:20:22.496Z,2.50
2023-04-04T03:22:49.598Z,3.03
2023-04-04T03:25:17.134Z,2.50
2023-04-04T03:27:44.213Z,3.20
2023-04-04T03:30:11.846Z,2.17
2023-04-04T03:32:42.135Z,2.60
2023-04-04T03:35:09.301Z,2.83
2023-04-04T03:37:36.683Z,2.30
2023-04-04T03:40:03.833Z,2.77
2023-04-04T03:42:34.731Z,2.77
2023-04-04T03:45:02.859Z,2.70
2023-04-04T03:47:30.149Z,2.57
2023-04-04T03:49:57.546Z,2.93
2023-04-04T03:52:24.607Z,2.80
2023-04-04T03:54:52.010Z,3.07
2023-04-04T03:57:19.100Z,2.50
2023-04-04T03:59:46.248Z,2.67
2023-04-04T04:02:13.456Z,2.80
2023-04-04T04:04:40.768Z,3.03
2023-04-04T04:07:08.487Z,3.23
2023-04-04T04:09:36.507Z,3.73
2023-04-04T04:12:03.592Z,3.80
2023-04-04T04:14:30.697Z,3.40
2023-04-04T04:16:57.732Z,3.00
2023-04-04T04:19:24.962Z,3.87
2023-04-04T04:21:52.013Z,3.37
2023-04-04T04:24:19.145Z,3.03
2023-04-04T04:26:46.229Z,3.30
2023-04-04T04:29:15.362Z,3.13
2023-04-04T04:31:42.643Z,3.20
2023-04-04T04:34:10.444Z,3.93
2023-04-04T04:36:37.668Z,3.53
2023-04-04T04:39:04.872Z,3.43
2023-04-04T04:41:32.174Z,3.90
2023-04-04T04:43:59.263Z,3.33
2023-04-04T04:46:26.347Z,3.50
2023-04-04T04:48:53.417Z,3.77
2023-04-04T04:51:29.484Z,3.43
2023-04-04T04:53:56.574Z,3.87
2023-04-04T04:56:23.691Z,4.23
2023-04-04T04:58:51.139Z,3.23
2023-04-04T05:01:20.789Z,3.30
2023-04-04T05:03:47.963Z,2.47
2023-04-04T05:06:17.702Z,3.60
2023-04-04T05:08:49.726Z,3.40
2023-04-04T05:11:16.783Z,3.60
2023-04-04T05:13:44.920Z,2.90
2023-04-04T05:16:12.303Z,3.03
2023-04-04T05:18:39.397Z,3.57
2023-04-04T05:21:06.514Z,3.20
2023-04-04T05:23:33.600Z,2.90
2023-04-04T05:26:01.101Z,3.77
2023-04-04T05:28:28.162Z,3.60
2023-04-04T05:30:55.858Z,3.63
2023-04-04T05:33:23.717Z,3.20
2023-04-04T05:35:50.857Z,3.13
2023-04-04T05:38:17.967Z,3.40
2023-04-04T05:40:45.754Z,3.53
2023-04-04T05:43:13.160Z,3.33
2023-04-04T05:45:41.427Z,2.83
2023-04-04T05:48:09.143Z,3.43
2023-04-04T05:50:36.244Z,3.50
2023-04-04T05:53:04.593Z,2.90
2023-04-04T05:55:31.628Z,2.73
2023-04-04T05:57:58.711Z,3.60
2023-04-04T06:00:25.730Z,3.70
2023-04-04T06:02:53.446Z,3.97
2023-04-04T06:05:20.592Z,4.40
2023-04-04T06:07:47.680Z,3.40
2023-04-04T06:10:14.771Z,3.20
2023-04-04T06:12:41.809Z,3.27
2023-04-04T06:15:09.076Z,3.23
2023-04-04T06:17:36.497Z,3.10
2023-04-04T06:20:05.127Z,2.63
2023-04-04T06:22:32.335Z,2.93
2023-04-04T06:24:59.462Z,3.00
2023-04-04T06:27:27.048Z,3.30
2023-04-04T06:29:54.174Z,2.70
2023-04-04T06:32:22.288Z,3.00
2023-04-04T06:34:49.487Z,4.20
2023-04-04T06:37:16.613Z,3.07
2023-04-04T06:39:43.741Z,3.07
2023-04-04T06:42:12.515Z,3.13
2023-04-04T06:44:39.596Z,3.37
2023-04-04T06:47:07.013Z,2.70
2023-04-04T06:49:34.051Z,3.40
2023-04-04T06:52:01.295Z,3.00
2023-04-04T06:54:28.349Z,2.73
2023-04-04T06:56:55.698Z,3.20
2023-04-04T06:59:23.031Z,2.90
2023-04-04T07:01:50.352Z,3.10
2023-04-04T07:04:20.123Z,3.07
2023-04-04T07:06:47.258Z,3.00
2023-04-04T07:09:25.775Z,2.67
2023-04-04T07:11:55.424Z,3.50
2023-04-04T07:14:25.126Z,3.00
2023-04-04T07:16:53.055Z,2.93
2023-04-04T07:19:20.361Z,3.00
2023-04-04T07:21:47.411Z,3.17
2023-04-04T07:24:14.523Z,3.30
2023-04-04T07:26:41.648Z,3.00
2023-04-04T07:29:08.784Z,4.20
2023-04-04T07:31:35.846Z,6.07
2023-04-04T07:34:03.474Z,3.80
2023-04-04T07:36:30.614Z,3.23
2023-04-04T07:38:57.949Z,3.07
2023-04-04T07:41:26.067Z,3.23
2023-04-04T07:43:53.182Z,2.90
2023-04-04T07:46:20.458Z,2.90
2023-04-04T07:48:47.622Z,3.10
2023-04-04T07:51:14.868Z,2.60
2023-04-04T07:53:41.923Z,2.90
2023-04-04T07:56:09.043Z,2.77
2023-04-04T07:58:36.618Z,3.00
2023-04-04T08:01:04.031Z,3.60
2023-04-04T08:03:31.304Z,3.17
2023-04-04T08:05:58.469Z,2.73
2023-04-04T08:08:25.966Z,2.90
2023-04-04T08:10:52.988Z,2.70
2023-04-04T08:13:20.222Z,2.70
2023-04-04T08:15:47.487Z,2.40
2023-04-04T08:18:15.577Z,3.13
2023-04-04T08:20:42.789Z,2.43
2023-04-04T08:23:09.903Z,3.23
2023-04-04T08:25:37.033Z,2.77
2023-04-04T08:28:05.283Z,3.63
2023-04-04T08:30:32.430Z,3.50
2023-04-04T08:32:59.615Z,3.10
2023-04-04T08:35:26.899Z,2.53
2023-04-04T08:37:53.964Z,2.53
2023-04-04T08:40:21.284Z,2.43
2023-04-04T08:42:51.521Z,2.20
2023-04-04T08:45:19.488Z,2.80
2023-04-04T08:47:48.275Z,2.73
2023-04-04T08:50:15.508Z,2.93
2023-04-04T08:52:43.442Z,2.30
2023-04-04T08:55:11.097Z,2.33
2023-04-04T08:57:38.681Z,2.00
2023-04-04T09:00:07.426Z,2.30
2023-04-04T09:02:58.114Z,2.63
2023-04-04T09:05:28.240Z,2.07
2023-04-04T09:07:56.255Z,1.93
2023-04-04T09:10:23.437Z,1.90
2023-04-04T09:12:51.851Z,1.70
2023-04-04T09:15:19.845Z,2.00
2023-04-04T09:17:46.911Z,2.57
2023-04-04T09:20:32.704Z,2.47
2023-04-04T09:22:59.762Z,2.00
2023-04-04T09:25:26.952Z,2.10
2023-04-04T09:27:54.055Z,2.03
2023-04-04T09:30:21.329Z,2.10
2023-04-04T09:32:48.434Z,2.10
2023-04-04T09:35:16.643Z,2.17
2023-04-04T09:37:45.056Z,2.17
2023-04-04T09:40:14.508Z,2.00
2023-04-04T09:42:42.171Z,1.80
2023-04-04T09:45:10.582Z,2.40
2023-04-04T09:47:42.787Z,2.50
2023-04-04T09:50:10.296Z,1.90
2023-04-04T09:52:37.528Z,2.33
2023-04-04T09:55:05.784Z,2.30
2023-04-04T09:57:33.420Z,2.13
2023-04-04T10:00:01.373Z,3.00
2023-04-04T10:02:31.084Z,6.20
2023-04-04T10:05:05.902Z,2.27
2023-04-04T10:07:34.026Z,2.37
2023-04-04T10:10:06.454Z,2.23
2023-04-04T10:12:33.516Z,1.97
2023-04-04T10:15:01.151Z,2.13
2023-04-04T10:17:31.699Z,2.30
2023-04-04T10:20:01.665Z,2.07
2023-04-04T10:22:29.648Z,1.90
2023-04-04T10:24:58.827Z,3.77
2023-04-04T10:27:26.624Z,2.03
2023-04-04T10:29:53.793Z,2.27
2023-04-04T10:32:48.298Z,2.00
2023-04-04T10:35:15.433Z,2.30
2023-04-04T10:37:48.575Z,1.87
2023-04-04T10:40:17.109Z,1.97
2023-04-04T10:42:47.282Z,2.20
2023-04-04T10:45:21.085Z,1.80
2023-04-04T10:47:49.064Z,2.20
2023-04-04T10:50:16.218Z,2.00
2023-04-04T10:52:44.714Z,2.20
2023-04-04T10:55:15.835Z,2.23
2023-04-04T10:57:44.068Z,1.83
2023-04-04T11:00:12.924Z,2.53
2023-04-04T11:02:57.770Z,2.30
2023-04-04T11:05:26.604Z,1.87
2023-04-04T11:08:07.304Z,2.00
2023-04-04T11:10:39.274Z,2.17
2023-04-04T11:13:16.153Z,2.13
2023-04-04T11:15:56.969Z,2.40
2023-04-04T11:18:34.183Z,3.07
2023-04-04T11:21:07.483Z,1.93
2023-04-04T11:23:49.889Z,2.30
2023-04-04T11:26:26.514Z,2.27
2023-04-04T11:28:56.857Z,2.80
2023-04-04T11:31:24.956Z,2.50
2023-04-04T11:34:01.736Z,2.40
2023-04-04T11:36:42.529Z,2.40
2023-04-04T11:39:10.427Z,2.47
2023-04-04T11:41:45.075Z,2.43
2023-04-04T11:44:12.173Z,2.10
2023-04-04T11:46:39.597Z,2.30
2023-04-04T11:49:07.410Z,2.40
2023-04-04T11:51:35.028Z,2.37
2023-04-04T11:54:02.100Z,2.20
2023-04-04T11:56:29.388Z,2.27
2023-04-04T11:59:08.666Z,2.73
2023-04-04T12:01:39.532Z,3.93
2023-04-04T12:04:06.744Z,2.47
2023-04-04T12:06:35.466Z,2.23
2023-04-04T12:09:06.698Z,2.40
2023-04-04T12:11:37.350Z,2.97
2023-04-04T12:14:04.486Z,3.03
2023-04-04T12:16:31.527Z,2.43
2023-04-04T12:19:01.988Z,2.67
2023-04-04T12:21:32.581Z,2.17
2023-04-04T12:23:59.665Z,2.47
2023-04-04T12:26:29.841Z,2.23
2023-04-04T12:28:58.147Z,2.80
2023-04-04T12:31:26.298Z,2.37
2023-04-04T12:33:54.160Z,2.57
2023-04-04T12:36:22.229Z,2.60
2023-04-04T12:39:02.369Z,2.63
2023-04-04T12:41:29.582Z,2.20
2023-04-04T12:44:03.381Z,2.60
2023-04-04T12:46:40.500Z,2.20
2023-04-04T12:49:08.262Z,2.50
2023-04-04T12:51:36.531Z,2.53
2023-04-04T12:54:05.557Z,2.70
2023-04-04T12:56:33.248Z,2.80
2023-04-04T12:59:04.664Z,2.60
2023-04-04T13:01:32.896Z,3.23
2023-04-04T13:04:06.910Z,2.70
2023-04-04T13:06:34.075Z,2.70
2023-04-04T13:09:01.180Z,2.80
2023-04-04T13:11:48.846Z,2.67
2023-04-04T13:14:15.886Z,3.00
2023-04-04T13:16:42.990Z,3.10
2023-04-04T13:19:10.099Z,2.83
2023-04-04T13:21:37.408Z,2.80
2023-04-04T13:24:04.814Z,3.10
2023-04-04T13:26:31.913Z,2.80
2023-04-04T13:28:58.972Z,3.40
2023-04-04T13:31:26.223Z,3.77
2023-04-04T13:33:53.355Z,3.67
2023-04-04T13:36:20.495Z,2.93
2023-04-04T13:38:47.718Z,3.17
2023-04-04T13:41:14.766Z,2.57
2023-04-04T13:43:41.844Z,11.50
2023-04-04T13:46:08.928Z,2.97
2023-04-04T13:48:36.048Z,2.63
2023-04-04T13:51:03.088Z,2.90
2023-04-04T13:53:30.236Z,2.87
2023-04-04T13:56:16.761Z,2.90
2023-04-04T13:58:44.291Z,2.73
2023-04-04T14:01:11.719Z,3.23
2023-04-04T14:03:38.857Z,2.97
2023-04-04T14:06:10.515Z,3.20
2023-04-04T14:08:38.368Z,3.00
2023-04-04T14:11:05.705Z,2.90
2023-04-04T14:13:33.165Z,2.80
2023-04-04T14:16:00.280Z,2.70
2023-04-04T14:18:27.419Z,3.60
2023-04-04T14:20:54.549Z,3.17
2023-04-04T14:23:22.138Z,3.10
2023-04-04T14:25:50.809Z,3.50
2023-04-04T14:28:17.895Z,2.93
2023-04-04T14:30:44.966Z,2.70
2023-04-04T14:33:13.095Z,2.63
2023-04-04T14:35:40.639Z,3.00
2023-04-04T14:38:08.005Z,2.80
2023-04-04T14:40:35.072Z,3.10
2023-04-04T14:43:02.416Z,2.87
2023-04-04T14:45:29.565Z,2.90
2023-04-04T14:47:56.757Z,2.57
2023-04-04T14:50:23.922Z,3.30
2023-04-04T14:52:52.804Z,2.80
2023-04-04T14:55:20.706Z,3.63
2023-04-04T14:58:01.126Z,2.87
2023-04-04T15:00:29.860Z,3.30
2023-04-04T15:02:56.978Z,2.90
2023-04-04T15:05:25.126Z,3.17
2023-04-04T15:07:52.290Z,3.20
2023-04-04T15:10:19.627Z,3.33
2023-04-04T15:12:46.704Z,3.20
2023-04-04T15:15:13.761Z,3.23
2023-04-04T15:17:41.726Z,3.37
2023-04-04T15:20:09.472Z,3.20
2023-04-04T15:22:38.413Z,2.83
2023-04-04T15:25:06.008Z,3.07
2023-04-04T15:27:33.042Z,3.33
2023-04-04T15:30:00.134Z,2.93
2023-04-04T15:32:27.292Z,3.50
2023-04-04T15:34:55.544Z,2.97
2023-04-04T15:37:22.600Z,3.57
2023-04-04T15:39:53.563Z,2.90
2023-04-04T15:42:21.581Z,3.10
2023-04-04T15:44:48.745Z,3.40
2023-04-04T15:47:16.968Z,3.00
2023-04-04T15:49:44.030Z,3.60
2023-04-04T15:52:11.092Z,3.37
2023-04-04T15:54:38.162Z,3.10
2023-04-04T15:57:05.374Z,3.93
2023-04-04T15:59:32.612Z,3.60
2023-04-04T16:02:00.400Z,3.10
2023-04-04T16:04:27.507Z,3.17
2023-04-04T16:06:54.548Z,3.73
2023-04-04T16:09:21.696Z,3.23
2023-04-04T16:11:48.788Z,3.70
2023-04-04T16:14:15.863Z,3.00
2023-04-04T16:16:43.080Z,3.60
2023-04-04T16:19:14.038Z,3.63
2023-04-04T16:21:41.877Z,3.30
2023-04-04T16:24:09.106Z,3.87
2023-04-04T16:26:36.332Z,3.30
2023-04-04T16:29:03.425Z,3.60
2023-04-04T16:31:31.150Z,3.60
2023-04-04T16:33:58.829Z,3.87
2023-04-04T16:36:26.246Z,3.33
2023-04-04T16:38:54.558Z,3.23
2023-04-04T16:41:21.656Z,3.93
2023-04-04T16:43:52.386Z,3.33
2023-04-04T16:46:19.856Z,3.63
2023-04-04T16:48:47.071Z,3.80
2023-04-04T16:51:14.163Z,3.40
2023-04-04T16:53:41.220Z,4.20
2023-04-04T16:56:08.268Z,3.40
2023-04-04T16:58:35.390Z,3.40
2023-04-04T17:01:02.521Z,3.13
2023-04-04T17:03:29.678Z,3.17
2023-04-04T17:05:59.783Z,3.53
2023-04-04T17:08:27.190Z,3.20
2023-04-04T17:10:54.358Z,3.73
2023-04-04T17:13:21.405Z,3.30
2023-04-04T17:15:48.470Z,3.57
2023-04-04T17:18:15.582Z,3.40
2023-04-04T17:20:43.526Z,3.30
2023-04-04T17:23:11.016Z,3.20
2023-04-04T17:25:38.060Z,4.93
2023-04-04T17:28:05.554Z,3.43
2023-04-04T17:30:32.994Z,4.10
2023-04-04T17:33:00.119Z,3.10
2023-04-04T17:35:27.615Z,2.90
2023-04-04T17:37:54.668Z,3.50
2023-04-04T17:40:24.007Z,2.73
2023-04-04T17:42:51.298Z,3.40
2023-04-04T17:45:19.318Z,3.43
2023-04-04T17:47:46.419Z,2.63
2023-04-04T17:50:13.527Z,4.20
2023-04-04T17:52:40.781Z,2.93
2023-04-04T17:55:08.822Z,3.93
2023-04-04T17:57:35.980Z,3.00
2023-04-04T18:00:03.180Z,2.70
2023-04-04T18:02:30.362Z,3.57
2023-04-04T18:04:58.410Z,3.03
2023-04-04T18:07:26.306Z,2.73
2023-04-04T18:09:53.400Z,3.17
2023-04-04T18:12:20.570Z,2.90
2023-04-04T18:14:47.676Z,3.17
2023-04-04T18:17:14.738Z,3.30
2023-04-04T18:19:42.438Z,2.60
2023-04-04T18:22:09.641Z,3.37
2023-04-04T18:24:37.219Z,2.50
2023-04-04T18:27:04.290Z,3.20
2023-04-04T18:29:32.515Z,3.57
2023-04-04T18:32:03.715Z,3.00
2023-04-04T18:34:31.011Z,2.97
2023-04-04T18:36:58.280Z,3.20
2023-04-04T18:39:25.450Z,3.47
2023-04-04T18:41:53.438Z,3.27
2023-04-04T18:44:21.802Z,3.00
2023-04-04T18:46:48.954Z,2.97
2023-04-04T18:49:16.197Z,3.10
2023-04-04T18:51:43.300Z,3.70
2023-04-04T18:54:10.387Z,3.10
2023-04-04T18:56:38.539Z,3.27
2023-04-04T18:59:06.043Z,3.70
2023-04-04T19:01:33.745Z,3.47
2023-04-04T19:04:01.648Z,3.33
2023-04-04T19:06:29.027Z,2.83
2023-04-04T19:08:58.449Z,3.47
2023-04-04T19:11:25.830Z,3.20
2023-04-04T19:13:53.020Z,3.30
2023-04-04T19:16:20.143Z,3.43
2023-04-04T19:18:47.305Z,3.50
2023-04-04T19:21:14.358Z,3.33
2023-04-04T19:23:41.618Z,3.17
2023-04-04T19:26:08.731Z,3.67
2023-04-04T19:28:36.255Z,3.43
2023-04-04T19:31:06.356Z,3.60
2023-04-04T19:33:33.787Z,3.47
2023-04-04T19:36:07.481Z,3.80
2023-04-04T19:38:36.151Z,3.57
2023-04-04T19:41:12.031Z,3.30
2023-04-04T19:43:41.275Z,3.57
2023-04-04T19:46:28.025Z,4.10
2023-04-04T19:48:56.196Z,3.33
2023-04-04T19:51:23.580Z,3.97
2023-04-04T19:53:51.892Z,3.03
2023-04-04T19:56:21.474Z,3.80
2023-04-04T19:58:49.134Z,3.80
2023-04-04T20:01:22.781Z,3.87
2023-04-04T20:03:50.378Z,3.70
2023-04-04T20:06:28.203Z,4.00
2023-04-04T20:08:56.447Z,3.93
2023-04-04T20:11:30.793Z,3.27
2023-04-04T20:13:58.759Z,3.60
2023-04-04T20:16:26.140Z,3.63
2023-04-04T20:18:53.571Z,4.00
2023-04-04T20:21:21.692Z,3.03
2023-04-04T20:23:50.283Z,3.67
2023-04-04T20:26:38.880Z,3.83
2023-04-04T20:29:13.499Z,4.20
2023-04-04T20:31:45.420Z,3.53
2023-04-04T20:34:32.926Z,3.80
2023-04-04T20:37:01.236Z,3.47
2023-04-04T20:39:54.857Z,3.60
2023-04-04T20:42:31.059Z,3.50
2023-04-04T20:44:58.363Z,3.97
2023-04-04T20:47:28.447Z,4.30
2023-04-04T20:49:55.812Z,4.93
2023-04-04T20:52:23.389Z,4.67
2023-04-04T20:54:50.433Z,4.83
2023-04-04T20:57:22.365Z,4.20
2023-04-04T20:59:49.506Z,3.80
2023-04-04T21:02:19.571Z,3.93
2023-04-04T21:04:49.390Z,3.90
2023-04-04T21:07:35.801Z,3.80
2023-04-04T21:10:03.374Z,4.00
2023-04-04T21:12:30.416Z,4.07
2023-04-04T21:14:57.688Z,4.10
2023-04-04T21:17:24.768Z,4.20
2023-04-04T21:19:52.124Z,4.33
2023-04-04T21:22:19.434Z,4.43
2023-04-04T21:24:46.703Z,4.00
2023-04-04T21:27:31.829Z,4.40
2023-04-04T21:29:59.203Z,4.63
2023-04-04T21:32:26.613Z,4.53
2023-04-04T21:34:53.800Z,4.03
2023-04-04T21:37:21.444Z,4.13
2023-04-04T21:39:49.937Z,4.03
2023-04-04T21:42:18.296Z,4.70
2023-04-04T21:44:45.375Z,3.93
2023-04-04T21:47:13.870Z,4.90
2023-04-04T21:49:41.655Z,4.87
2023-04-04T21:52:08.861Z,4.37
2023-04-04T21:54:36.668Z,5.03
2023-04-04T21:57:03.728Z,5.77
2023-04-04T21:59:31.093Z,4.47
2023-04-04T22:01:58.365Z,5.33
2023-04-04T22:04:25.597Z,4.27
2023-04-04T22:06:52.669Z,4.20
2023-04-04T22:09:22.662Z,4.27
2023-04-04T22:11:49.785Z,5.17
2023-04-04T22:14:17.298Z,4.70
2023-04-04T22:16:44.797Z,5.13
2023-04-04T22:19:12.202Z,4.87
2023-04-04T22:21:39.347Z,5.40
2023-04-04T22:24:06.694Z,4.40
2023-04-04T22:26:34.005Z,4.23
2023-04-04T22:29:06.194Z,4.43
2023-04-04T22:31:37.383Z,4.83
2023-04-04T22:34:06.171Z,4.30
2023-04-04T22:36:34.531Z,4.43
2023-04-04T22:39:02.727Z,4.47
2023-04-04T22:41:30.296Z,4.60
2023-04-04T22:43:58.357Z,4.70
2023-04-04T22:46:26.402Z,3.73
2023-04-04T22:49:04.916Z,4.73
2023-04-04T22:51:44.108Z,4.77
2023-04-04T22:54:17.462Z,4.40
2023-04-04T22:56:44.698Z,4.40
2023-04-04T22:59:11.982Z,4.70
2023-04-04T23:01:39.326Z,4.50
2023-04-04T23:04:06.705Z,4.23
2023-04-04T23:06:33.940Z,5.07
2023-04-04T23:09:02.015Z,4.80
2023-04-04T23:11:30.404Z,5.00
2023-04-04T23:13:57.650Z,4.30
2023-04-04T23:16:26.095Z,4.70
2023-04-04T23:18:53.464Z,5.33
2023-04-04T23:21:22.296Z,5.17
2023-04-04T23:23:49.629Z,4.90
2023-04-04T23:26:17.095Z,4.43
2023-04-04T23:28:44.156Z,4.93
2023-04-04T23:31:11.258Z,5.30
2023-04-04T23:33:38.310Z,4.30
2023-04-04T23:36:05.878Z,4.60
2023-04-04T23:38:33.450Z,4.60
2023-04-04T23:41:00.522Z,4.53
2023-04-04T23:43:27.563Z,4.50
2023-04-04T23:45:54.788Z,4.60
2023-04-04T23:48:22.065Z,4.77
2023-04-04T23:50:50.033Z,5.10
2023-04-04T23:53:17.128Z,5.33
2023-04-04T23:55:44.184Z,4.87
2023-04-04T23:58:11.618Z,5.40
